createdAt,value
2023-03-07T00:02:29.713Z,5.10
2023-03-07T00:05:32.401Z,5.10
2023-03-07T00:08:35.014Z,5.20
2023-03-07T00:11:37.199Z,5.10
2023-03-07T00:14:39.357Z,5.20
2023-03-07T00:17:41.164Z,5.20
2023-03-07T00:20:43.006Z,5.20
2023-03-07T00:23:46.273Z,5.10
2023-03-07T00:26:48.086Z,5.20
2023-03-07T00:29:50.315Z,5.20
2023-03-07T00:32:52.231Z,5.10
2023-03-07T00:36:02.644Z,5.20
2023-03-07T00:39:04.858Z,5.10
2023-03-07T00:42:06.764Z,5.20
2023-03-07T00:45:09.166Z,5.20
2023-03-07T00:48:11.133Z,5.20
2023-03-07T00:51:15.792Z,5.20
2023-03-07T00:54:17.986Z,5.20
2023-03-07T00:57:19.844Z,5.20
2023-03-07T01:00:21.811Z,5.20
2023-03-07T01:03:25.633Z,5.20
2023-03-07T01:06:30.463Z,5.20
2023-03-07T01:09:32.811Z,5.20
2023-03-07T01:12:35.654Z,5.20
2023-03-07T01:15:37.880Z,5.20
2023-03-07T01:18:40.233Z,5.20
2023-03-07T01:21:43.617Z,5.20
2023-03-07T01:24:45.410Z,5.20
2023-03-07T01:27:47.291Z,5.20
2023-03-07T01:31:00.036Z,5.20
2023-03-07T01:34:02.910Z,5.20
2023-03-07T01:37:04.721Z,5.20
2023-03-07T01:40:07.536Z,5.20
2023-03-07T01:43:27.355Z,5.20
2023-03-07T01:46:43.380Z,5.20
2023-03-07T01:49:48.094Z,5.20
2023-03-07T01:52:56.707Z,5.20
2023-03-07T01:55:58.877Z,5.20
2023-03-07T01:59:00.919Z,5.20
2023-03-07T02:02:11.965Z,5.20
2023-03-07T02:05:28.127Z,5.20
2023-03-07T02:08:32.031Z,5.10
2023-03-07T02:11:34.937Z,5.10
2023-03-07T02:14:36.888Z,5.10
2023-03-07T02:17:41.109Z,5.10
2023-03-07T02:20:52.826Z,5.10
2023-03-07T02:24:27.148Z,5.10
2023-03-07T02:27:33.682Z,5.10
2023-03-07T02:30:38.096Z,5.10
2023-03-07T02:33:40.394Z,5.10
2023-03-07T02:36:42.419Z,5.10
2023-03-07T02:39:46.383Z,5.10
2023-03-07T02:42:51.042Z,5.00
2023-03-07T02:45:52.936Z,5.00
2023-03-07T02:48:55.366Z,5.00
2023-03-07T02:52:00.663Z,5.10
2023-03-07T02:55:02.776Z,5.10
2023-03-07T02:58:04.886Z,5.10
2023-03-07T03:01:07.004Z,5.10
2023-03-07T03:04:09.300Z,5.10
2023-03-07T03:07:11.225Z,5.00
2023-03-07T03:10:13.310Z,5.00
2023-03-07T03:13:15.226Z,5.00
2023-03-07T03:16:17.375Z,5.00
2023-03-07T03:19:19.339Z,5.00
2023-03-07T03:22:21.162Z,5.00
2023-03-07T03:25:25.148Z,5.00
2023-03-07T03:28:27.027Z,5.00
2023-03-07T03:31:30.440Z,5.00
2023-03-07T03:34:32.264Z,5.00
2023-03-07T03:37:34.755Z,5.00
2023-03-07T03:40:38.427Z,5.00
2023-03-07T03:43:40.388Z,5.00
2023-03-07T03:46:42.689Z,5.00
2023-03-07T03:49:44.746Z,5.00
2023-03-07T03:52:46.648Z,5.00
2023-03-07T03:55:48.520Z,5.00
2023-03-07T03:58:52.616Z,5.00
2023-03-07T04:01:55.434Z,5.00
2023-03-07T04:04:57.582Z,5.00
2023-03-07T04:07:59.394Z,5.00
2023-03-07T04:11:01.896Z,5.00
2023-03-07T04:14:04.149Z,5.10
2023-03-07T04:17:06.041Z,5.10
2023-03-07T04:20:14.329Z,5.10
2023-03-07T04:23:17.542Z,5.00
2023-03-07T04:26:19.480Z,5.00
2023-03-07T04:29:21.608Z,5.00
2023-03-07T04:32:23.641Z,5.00
2023-03-07T04:35:25.722Z,5.00
2023-03-07T04:38:27.706Z,5.00
2023-03-07T04:41:29.757Z,5.00
2023-03-07T04:44:31.694Z,5.00
2023-03-07T04:47:33.569Z,5.00
2023-03-07T04:50:35.400Z,5.00
2023-03-07T04:53:37.579Z,5.00
2023-03-07T04:56:39.532Z,5.00
2023-03-07T04:59:41.403Z,5.00
2023-03-07T05:02:43.269Z,4.90
2023-03-07T05:05:45.125Z,5.00
2023-03-07T05:08:47.173Z,4.90
2023-03-07T05:11:48.953Z,4.90
2023-03-07T05:14:50.906Z,5.00
2023-03-07T05:17:53.063Z,5.00
2023-03-07T05:20:55.022Z,5.00
2023-03-07T05:23:56.936Z,5.00
2023-03-07T05:26:58.861Z,5.00
2023-03-07T05:30:00.954Z,5.00
2023-03-07T05:33:02.959Z,5.00
2023-03-07T05:36:05.145Z,5.00
2023-03-07T05:39:07.193Z,5.00
2023-03-07T05:42:09.631Z,5.00
2023-03-07T05:45:13.066Z,4.90
2023-03-07T05:48:15.002Z,4.90
2023-03-07T05:51:17.085Z,4.90
2023-03-07T05:54:19.123Z,4.90
2023-03-07T05:57:21.832Z,4.90
2023-03-07T06:00:24.143Z,4.90
2023-03-07T06:03:26.254Z,4.90
2023-03-07T06:06:28.180Z,5.00
2023-03-07T06:09:30.441Z,5.00
2023-03-07T06:12:32.473Z,5.00
2023-03-07T06:15:34.754Z,5.00
2023-03-07T06:18:36.588Z,5.00
2023-03-07T06:21:38.743Z,5.00
2023-03-07T06:24:40.682Z,4.90
2023-03-07T06:27:42.569Z,4.90
2023-03-07T06:30:44.505Z,4.90
2023-03-07T06:33:47.724Z,5.00
2023-03-07T06:36:49.622Z,5.00
2023-03-07T06:39:53.267Z,5.00
2023-03-07T06:42:55.063Z,5.00
2023-03-07T06:45:57.294Z,5.00
2023-03-07T06:48:59.247Z,5.00
2023-03-07T06:52:01.145Z,4.90
2023-03-07T06:55:03.569Z,5.00
2023-03-07T06:58:05.561Z,4.90
2023-03-07T07:01:07.381Z,4.90
2023-03-07T07:04:11.728Z,4.90
2023-03-07T07:07:13.971Z,4.90
2023-03-07T07:10:16.764Z,4.80
2023-03-07T07:13:18.638Z,4.90
2023-03-07T07:16:20.610Z,4.80
2023-03-07T07:19:22.496Z,4.90
2023-03-07T07:22:24.585Z,4.90
2023-03-07T07:25:26.624Z,4.80
2023-03-07T07:28:28.921Z,4.80
2023-03-07T07:31:31.000Z,4.80
2023-03-07T07:34:32.907Z,4.80
2023-03-07T07:37:34.891Z,4.90
2023-03-07T07:40:36.708Z,4.90
2023-03-07T07:43:38.578Z,5.00
2023-03-07T07:46:40.398Z,5.00
2023-03-07T07:49:42.250Z,5.00
2023-03-07T07:52:44.249Z,5.00
2023-03-07T07:55:46.413Z,5.00
2023-03-07T07:58:48.291Z,5.00
2023-03-07T08:01:50.188Z,5.10
2023-03-07T08:04:52.093Z,5.10
2023-03-07T08:07:54.016Z,5.10
2023-03-07T08:10:56.031Z,5.10
2023-03-07T08:13:58.068Z,5.10
2023-03-07T08:16:59.934Z,5.20
2023-03-07T08:20:08.123Z,5.20
2023-03-07T08:23:10.000Z,5.20
2023-03-07T08:26:13.410Z,5.20
2023-03-07T08:29:15.156Z,5.20
2023-03-07T08:32:17.110Z,5.20
2023-03-07T08:35:19.677Z,5.30
2023-03-07T08:38:21.840Z,5.30
2023-03-07T08:41:23.932Z,5.30
2023-03-07T08:44:25.812Z,5.30
2023-03-07T08:47:27.815Z,5.30
2023-03-07T08:50:29.892Z,5.30
2023-03-07T08:53:31.921Z,5.40
2023-03-07T08:56:33.737Z,5.40
2023-03-07T08:59:35.579Z,5.40
2023-03-07T09:02:37.401Z,5.40
2023-03-07T09:05:39.406Z,5.40
2023-03-07T09:08:42.155Z,5.40
2023-03-07T09:11:44.001Z,5.40
2023-03-07T09:14:45.822Z,5.40
2023-03-07T09:17:47.990Z,5.30
2023-03-07T09:20:50.047Z,5.30
2023-03-07T09:23:52.064Z,5.40
2023-03-07T09:26:56.978Z,5.40
2023-03-07T09:29:58.815Z,5.40
2023-03-07T09:33:00.783Z,5.30
2023-03-07T09:36:07.814Z,5.40
2023-03-07T09:39:14.364Z,5.30
2023-03-07T09:42:56.006Z,5.40
2023-03-07T09:46:04.849Z,5.40
2023-03-07T09:49:34.312Z,5.50
2023-03-07T09:52:39.445Z,5.50
2023-03-07T09:55:41.582Z,5.50
2023-03-07T09:58:48.930Z,5.50
2023-03-07T10:02:17.066Z,5.50
2023-03-07T10:05:28.128Z,5.50
2023-03-07T10:08:33.629Z,5.60
2023-03-07T10:11:57.053Z,5.50
2023-03-07T10:15:03.657Z,5.60
2023-03-07T10:18:50.623Z,5.50
2023-03-07T10:22:11.469Z,5.50
2023-03-07T10:25:25.929Z,5.60
2023-03-07T10:28:32.009Z,5.60
2023-03-07T10:31:39.455Z,5.60
2023-03-07T10:34:41.618Z,5.60
2023-03-07T10:37:55.174Z,5.60
2023-03-07T10:40:56.987Z,5.60
2023-03-07T10:43:59.201Z,5.60
2023-03-07T10:47:01.329Z,5.60
2023-03-07T10:50:35.918Z,5.70
2023-03-07T10:53:39.555Z,5.70
2023-03-07T10:56:41.500Z,5.60
2023-03-07T10:59:48.820Z,5.60
2023-03-07T11:02:51.008Z,5.60
2023-03-07T11:05:53.369Z,5.60
2023-03-07T11:08:56.302Z,5.70
2023-03-07T11:12:10.844Z,5.70
2023-03-07T11:15:21.698Z,5.70
2023-03-07T11:18:42.241Z,5.70
2023-03-07T11:21:56.259Z,5.80
2023-03-07T11:25:13.460Z,5.80
2023-03-07T11:28:33.657Z,5.80
2023-03-07T11:31:42.843Z,5.80
2023-03-07T11:34:52.304Z,5.90
2023-03-07T11:37:57.203Z,5.90
2023-03-07T11:41:10.071Z,5.90
2023-03-07T11:44:12.678Z,5.90
2023-03-07T11:47:35.097Z,5.90
2023-03-07T11:50:37.560Z,5.90
2023-03-07T11:53:51.445Z,6.00
2023-03-07T11:56:57.113Z,6.00
2023-03-07T12:00:23.735Z,6.00
2023-03-07T12:03:37.752Z,6.00
2023-03-07T12:07:00.768Z,6.00
2023-03-07T12:10:10.799Z,6.00
2023-03-07T12:13:38.557Z,6.00
2023-03-07T12:16:46.318Z,6.00
2023-03-07T12:20:07.657Z,6.00
2023-03-07T12:23:20.830Z,6.00
2023-03-07T12:26:59.107Z,6.00
2023-03-07T12:30:13.378Z,6.00
2023-03-07T12:33:40.374Z,6.00
2023-03-07T12:36:57.227Z,6.00
2023-03-07T12:40:04.002Z,6.00
2023-03-07T12:43:27.484Z,6.00
2023-03-07T12:46:51.699Z,6.00
2023-03-07T12:49:56.980Z,5.90
2023-03-07T12:53:01.922Z,5.90
2023-03-07T12:56:25.583Z,5.90
2023-03-07T12:59:29.328Z,5.80
2023-03-07T13:02:40.766Z,5.80
2023-03-07T13:05:44.646Z,5.80
2023-03-07T13:08:54.608Z,5.70
2023-03-07T13:12:20.272Z,5.70
2023-03-07T13:15:25.934Z,5.70
2023-03-07T13:18:30.789Z,5.60
2023-03-07T13:21:33.416Z,5.50
2023-03-07T13:24:43.148Z,5.50
2023-03-07T13:27:54.208Z,5.50
2023-03-07T13:31:16.842Z,5.40
2023-03-07T13:34:41.589Z,5.40
2023-03-07T13:37:57.101Z,5.40
2023-03-07T13:41:01.262Z,5.40
2023-03-07T13:44:03.657Z,5.40
2023-03-07T13:47:44.126Z,5.30
2023-03-07T13:50:45.914Z,5.20
2023-03-07T13:53:56.865Z,5.20
2023-03-07T13:56:59.666Z,5.20
2023-03-07T14:00:04.721Z,5.10
2023-03-07T14:03:22.201Z,5.00
2023-03-07T14:06:42.294Z,5.00
2023-03-07T14:09:49.628Z,5.00
2023-03-07T14:13:34.347Z,5.00
2023-03-07T14:17:21.197Z,5.00
2023-03-07T14:20:23.013Z,5.00
2023-03-07T14:23:35.824Z,4.90
2023-03-07T14:26:50.502Z,4.90
2023-03-07T14:29:57.120Z,4.90
2023-03-07T14:33:00.819Z,5.00
2023-03-07T14:36:27.620Z,5.10
2023-03-07T14:39:53.381Z,5.00
2023-03-07T14:43:09.292Z,5.00
2023-03-07T14:46:29.522Z,4.90
2023-03-07T14:49:49.176Z,4.90
2023-03-07T14:52:56.196Z,4.90
2023-03-07T14:56:01.798Z,4.90
2023-03-07T14:59:04.824Z,5.00
2023-03-07T15:02:18.892Z,5.00
2023-03-07T15:05:38.727Z,5.00
2023-03-07T15:08:41.662Z,5.00
2023-03-07T15:12:10.180Z,5.00
2023-03-07T15:15:23.544Z,4.90
2023-03-07T15:18:29.668Z,5.00
2023-03-07T15:21:41.498Z,5.00
2023-03-07T15:24:49.727Z,5.00
2023-03-07T15:28:17.017Z,4.90
2023-03-07T15:31:23.028Z,5.00
2023-03-07T15:34:28.704Z,4.90
2023-03-07T15:37:34.915Z,5.00
2023-03-07T15:40:37.289Z,5.00
2023-03-07T15:43:39.464Z,5.00
2023-03-07T15:46:46.359Z,5.00
2023-03-07T15:49:51.077Z,5.00
2023-03-07T15:52:55.528Z,5.00
2023-03-07T15:56:00.716Z,5.00
2023-03-07T15:59:07.182Z,5.00
2023-03-07T16:02:33.926Z,4.90
2023-03-07T16:05:37.819Z,5.00
2023-03-07T16:08:39.975Z,5.00
2023-03-07T16:11:42.874Z,5.00
2023-03-07T16:14:48.564Z,5.00
2023-03-07T16:17:55.045Z,5.00
2023-03-07T16:20:57.285Z,5.00
2023-03-07T16:23:59.138Z,5.00
2023-03-07T16:27:01.239Z,5.00
2023-03-07T16:30:07.085Z,5.00
2023-03-07T16:33:13.331Z,5.00
2023-03-07T16:36:16.138Z,5.10
2023-03-07T16:39:18.917Z,5.00
2023-03-07T16:42:23.164Z,5.00
2023-03-07T16:45:31.875Z,5.00
2023-03-07T16:48:34.149Z,5.00
2023-03-07T16:51:36.028Z,4.90
2023-03-07T16:54:37.813Z,5.00
2023-03-07T16:57:44.669Z,4.90
2023-03-07T17:00:46.702Z,4.90
2023-03-07T17:03:48.625Z,4.90
2023-03-07T17:07:00.880Z,4.80
2023-03-07T17:10:06.649Z,4.80
2023-03-07T17:13:14.743Z,4.80
2023-03-07T17:16:18.154Z,4.70
2023-03-07T17:19:30.374Z,4.70
2023-03-07T17:22:32.470Z,4.60
2023-03-07T17:25:34.730Z,4.60
2023-03-07T17:28:36.691Z,4.50
2023-03-07T17:31:38.615Z,4.50
2023-03-07T17:34:40.707Z,4.50
2023-03-07T17:37:43.731Z,4.40
2023-03-07T17:40:45.650Z,4.40
2023-03-07T17:43:47.665Z,4.40
2023-03-07T17:46:49.558Z,4.30
2023-03-07T17:49:51.372Z,4.30
2023-03-07T17:52:55.001Z,4.20
2023-03-07T17:55:57.957Z,4.30
2023-03-07T17:59:02.945Z,4.30
2023-03-07T18:02:05.688Z,4.30
2023-03-07T18:05:08.051Z,4.30
2023-03-07T18:08:10.836Z,4.20
2023-03-07T18:11:13.743Z,4.30
2023-03-07T18:14:15.711Z,4.30
2023-03-07T18:17:17.667Z,4.20
2023-03-07T18:20:20.400Z,4.30
2023-03-07T18:23:22.364Z,4.20
2023-03-07T18:26:24.420Z,4.20
2023-03-07T18:29:27.869Z,4.20
2023-03-07T18:32:31.116Z,4.20
2023-03-07T18:35:37.297Z,4.20
2023-03-07T18:38:39.733Z,4.20
2023-03-07T18:41:41.580Z,4.20
2023-03-07T18:44:43.602Z,4.20
2023-03-07T18:47:45.524Z,4.20
2023-03-07T18:50:56.953Z,4.10
2023-03-07T18:54:01.386Z,4.00
2023-03-07T18:57:03.228Z,4.10
2023-03-07T19:00:06.259Z,4.30
2023-03-07T19:03:08.210Z,4.30
2023-03-07T19:06:11.234Z,4.20
2023-03-07T19:09:18.999Z,4.20
2023-03-07T19:12:21.664Z,4.20
2023-03-07T19:15:23.486Z,4.10
2023-03-07T19:18:25.296Z,4.10
2023-03-07T19:21:31.632Z,4.00
2023-03-07T19:24:34.187Z,4.10
2023-03-07T19:27:45.054Z,4.10
2023-03-07T19:30:54.220Z,4.00
2023-03-07T19:33:56.881Z,4.00
2023-03-07T19:36:58.684Z,3.90
2023-03-07T19:40:00.655Z,4.00
2023-03-07T19:43:02.579Z,3.90
2023-03-07T19:46:10.012Z,3.90
2023-03-07T19:49:15.680Z,3.80
2023-03-07T19:52:17.500Z,3.80
2023-03-07T19:55:19.547Z,3.60
2023-03-07T19:58:21.396Z,3.60
2023-03-07T20:01:24.145Z,3.60
2023-03-07T20:04:26.340Z,3.50
2023-03-07T20:07:28.442Z,3.50
2023-03-07T20:10:30.816Z,3.50
2023-03-07T20:13:32.725Z,3.50
2023-03-07T20:16:35.256Z,3.50
2023-03-07T20:19:37.635Z,3.50
2023-03-07T20:22:41.766Z,3.50
2023-03-07T20:25:43.636Z,3.60
2023-03-07T20:28:54.944Z,3.50
2023-03-07T20:31:57.316Z,3.50
2023-03-07T20:35:03.423Z,3.50
2023-03-07T20:38:05.247Z,3.40
2023-03-07T20:41:11.494Z,3.50
2023-03-07T20:44:15.718Z,3.50
2023-03-07T20:47:17.694Z,3.50
2023-03-07T20:50:19.577Z,3.40
2023-03-07T20:53:21.440Z,3.30
2023-03-07T20:56:24.759Z,3.20
2023-03-07T20:59:26.565Z,3.40
2023-03-07T21:02:28.583Z,3.40
2023-03-07T21:05:30.660Z,3.40
2023-03-07T21:08:35.491Z,3.40
2023-03-07T21:11:40.121Z,3.40
2023-03-07T21:14:42.098Z,3.40
2023-03-07T21:17:44.084Z,3.40
2023-03-07T21:20:46.098Z,3.50
2023-03-07T21:23:48.312Z,3.50
2023-03-07T21:26:50.429Z,3.40
2023-03-07T21:29:52.511Z,3.40
2023-03-07T21:32:57.491Z,3.40
2023-03-07T21:35:59.617Z,3.40
2023-03-07T21:39:02.650Z,3.40
2023-03-07T21:42:04.653Z,3.40
2023-03-07T21:45:09.962Z,3.40
2023-03-07T21:48:14.783Z,3.40
2023-03-07T21:51:17.413Z,3.40
2023-03-07T21:54:19.244Z,3.40
2023-03-07T21:57:21.242Z,3.40
2023-03-07T22:00:23.651Z,3.40
2023-03-07T22:03:27.833Z,3.30
2023-03-07T22:06:29.792Z,3.30
2023-03-07T22:09:32.056Z,3.30
2023-03-07T22:12:34.595Z,3.30
2023-03-07T22:15:40.285Z,3.40
2023-03-07T22:18:42.131Z,3.40
2023-03-07T22:21:44.073Z,3.40
2023-03-07T22:24:48.092Z,3.30
2023-03-07T22:27:49.899Z,3.30
2023-03-07T22:30:52.138Z,3.30
2023-03-07T22:33:54.207Z,3.30
2023-03-07T22:36:57.477Z,3.20
2023-03-07T22:40:00.254Z,3.20
2023-03-07T22:43:02.085Z,3.20
2023-03-07T22:46:04.932Z,3.20
2023-03-07T22:49:06.840Z,3.20
2023-03-07T22:52:08.725Z,3.20
2023-03-07T22:55:10.607Z,3.10
2023-03-07T22:58:13.282Z,3.10
2023-03-07T23:01:20.900Z,3.10
2023-03-07T23:04:22.947Z,3.10
2023-03-07T23:07:26.405Z,3.10
2023-03-07T23:10:30.066Z,3.20
2023-03-07T23:13:34.023Z,3.20
2023-03-07T23:16:37.332Z,3.20
2023-03-07T23:19:39.320Z,3.20
2023-03-07T23:22:42.868Z,3.10
2023-03-07T23:25:44.831Z,3.10
2023-03-07T23:28:46.913Z,3.20
2023-03-07T23:31:49.104Z,3.20
2023-03-07T23:34:51.078Z,3.10
2023-03-07T23:37:53.010Z,3.10
2023-03-07T23:40:54.854Z,3.20
2023-03-07T23:43:59.458Z,3.20
2023-03-07T23:47:01.259Z,3.10
2023-03-07T23:50:03.371Z,3.10
2023-03-07T23:53:05.250Z,3.10
2023-03-07T23:56:08.229Z,3.20
2023-03-07T23:59:10.160Z,3.20
